Time;durP1;ratioP1;P1;durP2;ratioP2;P2;SDS_P1;SDS_P2;PMS_P1;PMS_P2;Temp;Humidity;BMP_temperature;BMP_pressure;BME280_temperature;BME280_humidity;BME280_pressure;Samples;Min_cycle;Max_cycle;Signal;HPM_P1;HPM_P2
2021/05/15 00:00:43;;;;;;;11.02;8.70;;;;;;;;;;5003338;28;39181;-76
2021/05/15 00:03:10;;;;;;;12.98;8.93;;;;;;;;;;4999793;28;37606;-76
2021/05/15 00:05:36;;;;;;;14.75;9.63;;;;;;;;;;5017659;28;39100;-76
2021/05/15 00:08:03;;;;;;;9.35;8.07;;;;;;;;;;5001720;28;38634;-76
2021/05/15 00:10:30;;;;;;;11.45;8.45;;;;;;;;;;5017471;28;49381;-76
2021/05/15 00:12:56;;;;;;;13.20;9.98;;;;;;;;;;5017652;28;37032;-76
2021/05/15 00:15:23;;;;;;;11.95;9.25;;;;;;;;;;5016332;28;39140;-76
2021/05/15 00:17:50;;;;;;;12.60;9.90;;;;;;;;;;5015218;28;38107;-77
2021/05/15 00:20:16;;;;;;;14.77;8.93;;;;;;;;;;5014165;28;37119;-76
2021/05/15 00:22:43;;;;;;;13.07;10.13;;;;;;;;;;5016462;28;38766;-76
2021/05/15 00:25:10;;;;;;;11.18;9.00;;;;;;;;;;5016235;28;39473;-76
2021/05/15 00:27:37;;;;;;;13.52;9.77;;;;;;;;;;5014158;28;37216;-76
2021/05/15 00:30:07;;;;;;;14.90;10.02;;;;;;;;;;5013236;28;39080;-76
2021/05/15 00:32:34;;;;;;;11.00;9.90;;;;;;;;;;4984566;28;46922;-75
2021/05/15 00:35:00;;;;;;;14.75;10.73;;;;;;;;;;4992400;28;38824;-76
2021/05/15 00:37:27;;;;;;;14.48;9.63;;;;;;;;;;5011814;28;48174;-76
2021/05/15 00:39:53;;;;;;;14.60;10.90;;;;;;;;;;5029412;28;38855;-76
2021/05/15 00:42:20;;;;;;;13.35;9.60;;;;;;;;;;5029471;28;38575;-76
2021/05/15 00:44:46;;;;;;;11.55;9.25;;;;;;;;;;5028445;28;39130;-76
2021/05/15 00:47:13;;;;;;;12.00;8.55;;;;;;;;;;5007896;28;38727;-76
2021/05/15 00:49:40;;;;;;;14.50;10.52;;;;;;;;;;4991894;28;38981;-76
2021/05/15 00:52:06;;;;;;;12.90;8.48;;;;;;;;;;4989514;28;38491;-76
2021/05/15 00:54:35;;;;;;;10.73;9.05;;;;;;;;;;4973908;28;39464;-76
2021/05/15 00:57:02;;;;;;;10.63;8.57;;;;;;;;;;4974371;28;39097;-77
2021/05/15 00:59:28;;;;;;;13.32;9.43;;;;;;;;;;4974699;28;47115;-76
2021/05/15 01:01:55;;;;;;;12.38;8.73;;;;;;;;;;4993329;28;37664;-76
2021/05/15 01:04:21;;;;;;;16.77;9.65;;;;;;;;;;4994825;28;40598;-76
2021/05/15 01:06:48;;;;;;;12.48;8.88;;;;;;;;;;5011541;28;39226;-76
2021/05/15 01:09:14;;;;;;;11.02;7.90;;;;;;;;;;5011252;28;38277;-76
2021/05/15 01:11:40;;;;;;;11.25;7.78;;;;;;;;;;5011999;28;36832;-76
2021/05/15 01:14:07;;;;;;;11.68;8.65;;;;;;;;;;5010681;28;40664;-76
2021/05/15 01:16:33;;;;;;;13.98;9.13;;;;;;;;;;5008223;28;40341;-76
2021/05/15 01:19:00;;;;;;;14.65;8.02;;;;;;;;;;5011359;28;38728;-76
2021/05/15 01:21:26;;;;;;;10.35;8.02;;;;;;;;;;5011669;28;35760;-76
2021/05/15 01:23:53;;;;;;;12.18;9.38;;;;;;;;;;5012503;28;40391;-76
2021/05/15 01:26:21;;;;;;;17.35;9.10;;;;;;;;;;5012658;28;38704;-77
2021/05/15 01:28:47;;;;;;;13.23;9.98;;;;;;;;;;5012694;28;39414;-77
2021/05/15 01:31:14;;;;;;;11.38;9.85;;;;;;;;;;5008654;28;37386;-77
2021/05/15 01:33:40;;;;;;;12.90;9.27;;;;;;;;;;4995905;28;41077;-77
2021/05/15 01:36:07;;;;;;;10.75;9.35;;;;;;;;;;4994913;28;39724;-77
2021/05/15 01:38:34;;;;;;;11.90;9.20;;;;;;;;;;5009899;28;39617;-77
2021/05/15 01:41:04;;;;;;;10.35;9.02;;;;;;;;;;5011121;28;36730;-77
2021/05/15 01:43:31;;;;;;;13.93;9.95;;;;;;;;;;4994420;28;47152;-76
2021/05/15 01:45:57;;;;;;;11.23;8.98;;;;;;;;;;5012846;28;38158;-77
2021/05/15 01:48:23;;;;;;;17.00;9.63;;;;;;;;;;5013932;28;39235;-76
2021/05/15 01:51:00;;;;;;;12.07;9.45;;;;;;;;;;4995490;28;35942;-77
2021/05/15 01:53:30;;;;;;;14.23;10.05;;;;;;;;;;5013767;28;47789;-77
2021/05/15 01:55:57;;;;;;;15.00;10.13;;;;;;;;;;4991541;28;39391;-77
2021/05/15 01:58:23;;;;;;;12.90;9.48;;;;;;;;;;4993950;28;38019;-77
2021/05/15 02:00:50;;;;;;;16.08;10.05;;;;;;;;;;5005904;28;37902;-77
2021/05/15 02:03:16;;;;;;;11.65;9.02;;;;;;;;;;5018635;28;39201;-76
2021/05/15 02:05:42;;;;;;;10.90;9.07;;;;;;;;;;5016605;28;39713;-77
2021/05/15 02:08:11;;;;;;;11.80;9.43;;;;;;;;;;4998057;28;39747;-77
2021/05/15 02:10:37;;;;;;;15.73;10.65;;;;;;;;;;5015839;28;36982;-77
2021/05/15 02:13:04;;;;;;;13.60;11.18;;;;;;;;;;4994669;28;39410;-76
2021/05/15 02:15:30;;;;;;;11.27;9.80;;;;;;;;;;5013801;28;38708;-76
2021/05/15 02:17:58;;;;;;;12.38;10.15;;;;;;;;;;5011812;28;39989;-76
2021/05/15 02:20:25;;;;;;;13.15;10.38;;;;;;;;;;5011982;28;37480;-76
2021/05/15 02:22:51;;;;;;;15.52;11.27;;;;;;;;;;5010898;28;40501;-77
2021/05/15 02:25:18;;;;;;;16.02;10.75;;;;;;;;;;5011512;28;38852;-76
2021/05/15 02:27:44;;;;;;;18.80;10.35;;;;;;;;;;5013260;28;39623;-75
2021/05/15 02:30:11;;;;;;;16.98;11.23;;;;;;;;;;5008711;28;38859;-76
2021/05/15 02:32:37;;;;;;;14.35;10.57;;;;;;;;;;4990188;28;39900;-76
2021/05/15 02:35:05;;;;;;;16.25;11.15;;;;;;;;;;4989921;28;38294;-76
2021/05/15 02:37:31;;;;;;;13.75;10.07;;;;;;;;;;4990081;28;48799;-76
2021/05/15 02:39:57;;;;;;;14.88;11.55;;;;;;;;;;4989287;28;38987;-76
2021/05/15 02:42:24;;;;;;;14.15;10.82;;;;;;;;;;4971313;28;38744;-77
2021/05/15 02:44:52;;;;;;;15.00;10.68;;;;;;;;;;4988891;28;38849;-76
2021/05/15 02:47:20;;;;;;;14.05;10.68;;;;;;;;;;4978085;28;38793;-76
2021/05/15 02:49:47;;;;;;;17.42;11.95;;;;;;;;;;4990299;28;20511;-75
2021/05/15 02:52:13;;;;;;;14.60;10.55;;;;;;;;;;4988696;28;38907;-76
2021/05/15 02:54:40;;;;;;;14.75;11.48;;;;;;;;;;4988973;28;38735;-76
2021/05/15 02:57:07;;;;;;;13.98;10.82;;;;;;;;;;4986587;28;38756;-76
2021/05/15 02:59:33;;;;;;;13.98;10.77;;;;;;;;;;4989662;28;38265;-75
2021/05/15 03:02:00;;;;;;;20.90;12.38;;;;;;;;;;4989306;28;38817;-75
2021/05/15 03:04:26;;;;;;;13.43;10.70;;;;;;;;;;5008782;28;47586;-77
2021/05/15 03:06:53;;;;;;;16.80;10.50;;;;;;;;;;4989518;28;38300;-76
2021/05/15 03:09:19;;;;;;;14.10;11.10;;;;;;;;;;5008256;28;37141;-76
2021/05/15 03:11:46;;;;;;;13.68;10.40;;;;;;;;;;5007951;28;38851;-76
2021/05/15 03:14:12;;;;;;;13.13;9.63;;;;;;;;;;4990715;28;38921;-76
2021/05/15 03:16:38;;;;;;;13.73;10.30;;;;;;;;;;4990273;28;38613;-76
2021/05/15 03:19:05;;;;;;;14.57;10.23;;;;;;;;;;4990576;28;37277;-76
2021/05/15 03:21:31;;;;;;;12.73;10.30;;;;;;;;;;4985035;28;40840;-76
2021/05/15 03:23:58;;;;;;;17.20;11.15;;;;;;;;;;4989265;28;38434;-76
2021/05/15 03:26:24;;;;;;;13.77;10.60;;;;;;;;;;4970745;28;38718;-76
2021/05/15 03:28:51;;;;;;;15.65;10.85;;;;;;;;;;4970499;28;38234;-76
2021/05/15 03:31:17;;;;;;;14.68;10.10;;;;;;;;;;4976771;28;39125;-76
2021/05/15 03:33:44;;;;;;;13.57;10.73;;;;;;;;;;5008375;28;39636;-76
2021/05/15 03:36:10;;;;;;;13.48;10.65;;;;;;;;;;4998870;28;39380;-76
2021/05/15 03:38:36;;;;;;;15.48;12.40;;;;;;;;;;5014422;28;36893;-76
2021/05/15 03:41:03;;;;;;;22.10;14.60;;;;;;;;;;5007325;28;38251;-76
2021/05/15 03:43:29;;;;;;;21.73;14.88;;;;;;;;;;4991013;28;42221;-76
2021/05/15 03:45:56;;;;;;;26.83;17.65;;;;;;;;;;5008692;28;38746;-76
2021/05/15 03:48:23;;;;;;;25.92;17.10;;;;;;;;;;4991874;28;38893;-76
2021/05/15 03:50:50;;;;;;;31.83;20.75;;;;;;;;;;4989461;28;38966;-76
2021/05/15 03:53:16;;;;;;;33.63;22.10;;;;;;;;;;5009084;28;38757;-75
2021/05/15 03:55:43;;;;;;;34.38;23.55;;;;;;;;;;4990596;28;40220;-76
2021/05/15 03:58:10;;;;;;;36.42;22.98;;;;;;;;;;5009734;28;36917;-76
2021/05/15 04:00:36;;;;;;;36.05;22.80;;;;;;;;;;4999446;28;39571;-76
2021/05/15 04:03:03;;;;;;;34.08;23.05;;;;;;;;;;5012626;28;39350;-75
2021/05/15 04:05:29;;;;;;;36.25;23.40;;;;;;;;;;4992953;28;47509;-76
2021/05/15 04:07:55;;;;;;;36.85;23.45;;;;;;;;;;5013001;28;37282;-76
2021/05/15 04:10:22;;;;;;;38.72;23.65;;;;;;;;;;4993050;28;37637;-75
2021/05/15 04:18:30;;;;;;;33.45;24.60;;;;;;;;;;5010535;28;37523;-78
2021/05/15 04:20:57;;;;;;;35.80;22.65;;;;;;;;;;5007577;28;47567;-76
2021/05/15 04:23:24;;;;;;;32.45;22.17;;;;;;;;;;5011629;28;40226;-76
2021/05/15 04:25:50;;;;;;;36.47;21.35;;;;;;;;;;5009967;28;37236;-77
2021/05/15 04:28:17;;;;;;;32.83;22.05;;;;;;;;;;5014257;28;38295;-77
2021/05/15 04:30:44;;;;;;;33.10;21.58;;;;;;;;;;4992015;28;38294;-77
2021/05/15 04:33:10;;;;;;;32.17;21.73;;;;;;;;;;4983242;28;37633;-77
2021/05/15 04:35:37;;;;;;;30.65;21.58;;;;;;;;;;4998787;28;37690;-77
2021/05/15 04:38:04;;;;;;;31.17;19.83;;;;;;;;;;4999549;28;36602;-77
2021/05/15 04:40:31;;;;;;;27.35;19.75;;;;;;;;;;5016453;28;39013;-77
2021/05/15 04:42:58;;;;;;;30.00;19.73;;;;;;;;;;4999527;28;37427;-76
2021/05/15 04:45:27;;;;;;;30.60;19.33;;;;;;;;;;5015603;28;38191;-77
2021/05/15 04:47:53;;;;;;;28.70;21.27;;;;;;;;;;5016511;28;37199;-77
2021/05/15 04:50:19;;;;;;;39.22;23.58;;;;;;;;;;4998064;28;38937;-77
2021/05/15 04:52:46;;;;;;;33.35;23.17;;;;;;;;;;5015899;28;37936;-77
2021/05/15 04:55:12;;;;;;;32.97;21.30;;;;;;;;;;4997622;28;37796;-77
2021/05/15 04:57:38;;;;;;;35.13;22.30;;;;;;;;;;4999265;28;36719;-77
2021/05/15 05:00:05;;;;;;;32.22;23.50;;;;;;;;;;5014892;28;38851;-77
2021/05/15 05:02:32;;;;;;;31.65;22.55;;;;;;;;;;4994499;28;38062;-77
2021/05/15 05:04:58;;;;;;;32.65;21.48;;;;;;;;;;4978268;28;37170;-77
2021/05/15 05:07:25;;;;;;;28.52;20.83;;;;;;;;;;4977755;28;36763;-77
2021/05/15 05:09:51;;;;;;;29.42;22.05;;;;;;;;;;4978057;28;37954;-76
2021/05/15 05:12:18;;;;;;;32.20;22.23;;;;;;;;;;4977461;28;38123;-76
2021/05/15 05:14:44;;;;;;;29.27;20.88;;;;;;;;;;4975589;28;38186;-75
2021/05/15 05:17:11;;;;;;;27.63;19.77;;;;;;;;;;4992075;28;38128;-76
2021/05/15 05:19:37;;;;;;;28.15;20.25;;;;;;;;;;4980898;28;37960;-77
2021/05/15 05:22:04;;;;;;;30.42;21.50;;;;;;;;;;4993690;28;39107;-77
2021/05/15 05:24:30;;;;;;;28.45;20.77;;;;;;;;;;5013662;28;38429;-77
2021/05/15 05:26:58;;;;;;;32.08;21.30;;;;;;;;;;5012877;28;36798;-77
2021/05/15 05:29:24;;;;;;;33.85;22.02;;;;;;;;;;5011753;28;39263;-76
2021/05/15 05:31:51;;;;;;;29.40;20.00;;;;;;;;;;4995283;28;37933;-77
2021/05/15 05:34:19;;;;;;;26.10;18.77;;;;;;;;;;4976667;28;37535;-77
2021/05/15 05:36:46;;;;;;;27.77;18.30;;;;;;;;;;4998789;28;37644;-77
2021/05/15 05:39:17;;;;;;;26.25;18.55;;;;;;;;;;4994855;28;39205;-77
2021/05/15 05:41:43;;;;;;;26.83;18.58;;;;;;;;;;5012906;28;38167;-77
2021/05/15 05:44:09;;;;;;;26.60;17.67;;;;;;;;;;4993618;28;37084;-77
2021/05/15 05:46:36;;;;;;;28.75;17.70;;;;;;;;;;5011482;28;37231;-77
2021/05/15 05:49:02;;;;;;;23.33;16.27;;;;;;;;;;5010814;28;39531;-77
2021/05/15 05:51:29;;;;;;;18.45;14.43;;;;;;;;;;4993173;28;38867;-77
2021/05/15 05:53:55;;;;;;;20.35;15.05;;;;;;;;;;4993797;28;38646;-77
2021/05/15 05:56:22;;;;;;;24.33;15.85;;;;;;;;;;5011497;28;37288;-76
2021/05/15 05:58:48;;;;;;;20.92;15.65;;;;;;;;;;5011570;28;38464;-77
2021/05/15 06:01:15;;;;;;;23.40;15.50;;;;;;;;;;5009006;28;37797;-77
2021/05/15 06:03:41;;;;;;;17.75;13.52;;;;;;;;;;5011808;28;38392;-77
2021/05/15 06:06:08;;;;;;;17.33;14.40;;;;;;;;;;5010577;28;37983;-77
2021/05/15 06:08:34;;;;;;;24.00;15.68;;;;;;;;;;4994689;28;40427;-77
2021/05/15 06:11:01;;;;;;;21.13;15.13;;;;;;;;;;4994482;28;37688;-77
2021/05/15 06:13:27;;;;;;;19.00;13.95;;;;;;;;;;5013552;28;48868;-76
2021/05/15 06:15:54;;;;;;;17.42;11.07;;;;;;;;;;5012712;28;38371;-77
2021/05/15 06:18:20;;;;;;;14.32;10.73;;;;;;;;;;5014007;28;39437;-77
2021/05/15 06:20:47;;;;;;;17.55;9.85;;;;;;;;;;5011320;28;39590;-76
2021/05/15 06:23:14;;;;;;;12.95;9.38;;;;;;;;;;5012920;28;38848;-76
2021/05/15 06:25:41;;;;;;;13.20;8.20;;;;;;;;;;5009268;28;38598;-77
2021/05/15 06:28:08;;;;;;;14.02;8.20;;;;;;;;;;5011582;28;38305;-77
2021/05/15 06:30:35;;;;;;;9.50;7.40;;;;;;;;;;4992822;28;39357;-77
2021/05/15 06:33:01;;;;;;;8.55;6.80;;;;;;;;;;5000407;28;38060;-77
2021/05/15 06:35:28;;;;;;;11.43;7.10;;;;;;;;;;5016030;28;37925;-77
2021/05/15 06:37:54;;;;;;;10.85;6.80;;;;;;;;;;5030627;28;39383;-77
2021/05/15 06:40:21;;;;;;;12.23;7.22;;;;;;;;;;5012557;28;39754;-77
2021/05/15 06:42:47;;;;;;;12.80;7.43;;;;;;;;;;4992163;28;38027;-77
2021/05/15 06:45:13;;;;;;;10.75;8.68;;;;;;;;;;5008861;28;37173;-76
2021/05/15 06:47:40;;;;;;;12.70;7.97;;;;;;;;;;5010633;28;38838;-77
2021/05/15 06:50:09;;;;;;;7.82;5.78;;;;;;;;;;4990139;28;39137;-77
2021/05/15 06:52:35;;;;;;;10.05;6.03;;;;;;;;;;5009813;28;37771;-77
2021/05/15 06:55:03;;;;;;;8.23;5.85;;;;;;;;;;5010390;28;37909;-77
2021/05/15 06:57:29;;;;;;;8.75;5.10;;;;;;;;;;4991418;28;39849;-77
2021/05/15 06:59:55;;;;;;;10.85;7.20;;;;;;;;;;5007666;28;38510;-77
2021/05/15 07:02:22;;;;;;;8.90;6.80;;;;;;;;;;5008435;28;38478;-77
2021/05/15 07:04:50;;;;;;;10.73;7.07;;;;;;;;;;5000123;28;37399;-77
2021/05/15 07:07:17;;;;;;;9.23;7.38;;;;;;;;;;5007543;28;40199;-77
2021/05/15 07:09:44;;;;;;;10.35;8.48;;;;;;;;;;5008874;28;38129;-77
2021/05/15 07:12:10;;;;;;;10.13;7.03;;;;;;;;;;4989686;28;38528;-77
2021/05/15 07:14:37;;;;;;;10.90;8.18;;;;;;;;;;4989782;28;38263;-77
2021/05/15 07:17:03;;;;;;;10.05;7.95;;;;;;;;;;4989526;28;39893;-76
2021/05/15 07:19:30;;;;;;;12.10;7.63;;;;;;;;;;4990266;28;38877;-77
2021/05/15 07:21:56;;;;;;;11.55;8.48;;;;;;;;;;5007109;28;39048;-77
2021/05/15 07:24:22;;;;;;;10.93;7.57;;;;;;;;;;4990044;28;38708;-76
2021/05/15 07:26:49;;;;;;;11.98;8.25;;;;;;;;;;5007986;28;40008;-77
2021/05/15 07:29:15;;;;;;;10.35;7.35;;;;;;;;;;4986122;28;39722;-77
2021/05/15 07:31:42;;;;;;;11.13;8.27;;;;;;;;;;4976659;28;39677;-77
2021/05/15 07:34:08;;;;;;;20.45;9.85;;;;;;;;;;4987093;28;37382;-77
2021/05/15 07:36:34;;;;;;;11.02;8.55;;;;;;;;;;4986351;28;40845;-77
2021/05/15 07:39:01;;;;;;;12.27;9.00;;;;;;;;;;4971406;28;39133;-77
2021/05/15 07:41:27;;;;;;;13.02;9.38;;;;;;;;;;4988341;28;48607;-76
2021/05/15 07:43:54;;;;;;;15.32;10.15;;;;;;;;;;4972620;28;37573;-77
2021/05/15 07:46:20;;;;;;;10.93;8.52;;;;;;;;;;4970180;28;39515;-77
2021/05/15 07:48:47;;;;;;;12.23;9.60;;;;;;;;;;4988760;28;38795;-77
2021/05/15 07:51:19;;;;;;;16.27;10.73;;;;;;;;;;4988182;28;38361;-77
2021/05/15 07:53:46;;;;;;;13.10;9.75;;;;;;;;;;5005184;28;36754;-77
2021/05/15 07:56:12;;;;;;;14.52;10.05;;;;;;;;;;5008962;28;40485;-77
2021/05/15 07:58:39;;;;;;;13.07;9.07;;;;;;;;;;5018781;28;39966;-77
2021/05/15 08:01:05;;;;;;;13.75;9.65;;;;;;;;;;5008815;28;38791;-76
2021/05/15 08:03:31;;;;;;;11.38;9.65;;;;;;;;;;5008870;28;38093;-76
2021/05/15 08:05:58;;;;;;;16.02;11.60;;;;;;;;;;4990869;28;38102;-76
2021/05/15 08:08:25;;;;;;;14.38;10.85;;;;;;;;;;4992280;28;39524;-77
2021/05/15 08:10:51;;;;;;;14.20;11.55;;;;;;;;;;5006546;28;38303;-77
2021/05/15 08:13:18;;;;;;;18.05;11.90;;;;;;;;;;4990686;28;38018;-77
2021/05/15 08:15:45;;;;;;;18.13;12.18;;;;;;;;;;5007424;28;38614;-76
2021/05/15 08:18:12;;;;;;;16.67;11.55;;;;;;;;;;5007065;28;38684;-77
2021/05/15 08:20:39;;;;;;;19.35;11.88;;;;;;;;;;4991417;28;38075;-77
2021/05/15 08:23:05;;;;;;;17.13;12.38;;;;;;;;;;5008807;28;36924;-77
2021/05/15 08:25:32;;;;;;;17.77;13.63;;;;;;;;;;4987658;28;39716;-77
2021/05/15 08:28:01;;;;;;;15.63;11.88;;;;;;;;;;5006126;28;38613;-77
2021/05/15 08:30:29;;;;;;;18.20;13.90;;;;;;;;;;4987760;28;38168;-77
2021/05/15 08:32:56;;;;;;;19.63;12.93;;;;;;;;;;4974946;28;37540;-77
2021/05/15 08:35:24;;;;;;;15.77;13.07;;;;;;;;;;4992563;28;39946;-77
2021/05/15 08:37:51;;;;;;;18.65;14.18;;;;;;;;;;5009853;28;39964;-77
2021/05/15 08:40:17;;;;;;;20.30;15.50;;;;;;;;;;5003197;28;37186;-77
2021/05/15 08:42:45;;;;;;;18.88;15.07;;;;;;;;;;4971434;28;37900;-77
2021/05/15 08:45:13;;;;;;;21.15;16.02;;;;;;;;;;5007706;28;38826;-77
2021/05/15 08:47:41;;;;;;;22.13;17.23;;;;;;;;;;5009456;28;38898;-77
2021/05/15 08:50:09;;;;;;;22.58;18.05;;;;;;;;;;5005212;28;40121;-76
2021/05/15 08:52:43;;;;;;;21.63;15.43;;;;;;;;;;5008955;28;37487;-77
2021/05/15 08:55:11;;;;;;;21.30;16.33;;;;;;;;;;5006572;28;38315;-77
2021/05/15 08:57:37;;;;;;;24.08;18.17;;;;;;;;;;5008802;28;39386;-77
2021/05/15 09:00:08;;;;;;;23.98;17.38;;;;;;;;;;5006126;28;39311;-77
2021/05/15 09:02:34;;;;;;;22.95;17.83;;;;;;;;;;4990568;28;47743;-77
2021/05/15 09:05:01;;;;;;;23.58;18.77;;;;;;;;;;4989669;28;39393;-76
2021/05/15 09:07:27;;;;;;;27.67;20.00;;;;;;;;;;4986671;28;39129;-77
2021/05/15 09:09:54;;;;;;;24.00;18.10;;;;;;;;;;4988837;28;38289;-77
2021/05/15 09:12:20;;;;;;;25.65;18.58;;;;;;;;;;4987106;28;37081;-77
2021/05/15 09:14:56;;;;;;;25.85;18.27;;;;;;;;;;4969747;28;37543;-76
2021/05/15 09:17:23;;;;;;;26.33;17.88;;;;;;;;;;4973959;28;38511;-77
2021/05/15 09:19:52;;;;;;;21.58;16.58;;;;;;;;;;5010304;28;38237;-77
2021/05/15 09:22:25;;;;;;;23.17;17.63;;;;;;;;;;5011358;28;36822;-77
2021/05/15 09:24:51;;;;;;;21.60;17.10;;;;;;;;;;5009714;28;39314;-76
2021/05/15 09:27:18;;;;;;;29.65;19.10;;;;;;;;;;5004271;28;39120;-77
2021/05/15 09:29:45;;;;;;;32.65;21.60;;;;;;;;;;4972358;28;39048;-77
2021/05/15 09:32:13;;;;;;;30.52;21.20;;;;;;;;;;5003851;28;36850;-77
2021/05/15 09:34:43;;;;;;;37.30;24.52;;;;;;;;;;4992100;28;39937;-76
2021/05/15 09:37:09;;;;;;;33.08;23.65;;;;;;;;;;5008749;28;38878;-76
2021/05/15 09:39:36;;;;;;;33.00;23.77;;;;;;;;;;5012212;28;40080;-75
2021/05/15 09:42:02;;;;;;;34.65;25.15;;;;;;;;;;5028967;28;36912;-76
2021/05/15 09:44:30;;;;;;;39.90;26.25;;;;;;;;;;5031835;28;39116;-76
2021/05/15 09:46:58;;;;;;;36.75;27.13;;;;;;;;;;5030145;28;38725;-76
2021/05/15 09:49:25;;;;;;;41.65;25.67;;;;;;;;;;5012992;28;38727;-76
2021/05/15 09:51:53;;;;;;;36.25;24.83;;;;;;;;;;5021718;28;36969;-76
2021/05/15 09:54:19;;;;;;;32.95;25.35;;;;;;;;;;4992351;28;41565;-75
2021/05/15 09:56:59;;;;;;;33.67;24.60;;;;;;;;;;5009080;28;38539;-76
2021/05/15 09:59:26;;;;;;;33.65;24.52;;;;;;;;;;4991897;28;36894;-77
2021/05/15 10:01:56;;;;;;;37.50;25.10;;;;;;;;;;5009723;28;37622;-76
2021/05/15 10:04:23;;;;;;;35.42;25.80;;;;;;;;;;4991359;28;40146;-74
2021/05/15 10:06:50;;;;;;;37.20;26.77;;;;;;;;;;5008544;28;39265;-75
2021/05/15 10:09:30;;;;;;;36.58;26.20;;;;;;;;;;4990598;28;39024;-76
2021/05/15 10:11:56;;;;;;;41.03;27.00;;;;;;;;;;5007786;28;37842;-76
2021/05/15 10:14:23;;;;;;;47.22;29.95;;;;;;;;;;5007359;28;40705;-77
2021/05/15 10:16:49;;;;;;;39.92;28.58;;;;;;;;;;5008435;28;39071;-75
2021/05/15 10:19:16;;;;;;;41.75;29.05;;;;;;;;;;5007461;28;37345;-75
2021/05/15 10:21:43;;;;;;;40.97;29.38;;;;;;;;;;5007552;28;37400;-76
2021/05/15 10:24:20;;;;;;;43.67;30.08;;;;;;;;;;5009639;28;39872;-77
2021/05/15 10:27:03;;;;;;;45.85;32.13;;;;;;;;;;5010937;28;39177;-77
2021/05/15 10:29:35;;;;;;;44.22;32.03;;;;;;;;;;4974964;28;47215;-77
2021/05/15 10:32:02;;;;;;;48.47;31.15;;;;;;;;;;4971746;28;37810;-77
2021/05/15 10:34:32;;;;;;;40.42;29.92;;;;;;;;;;4990549;28;38845;-77
2021/05/15 10:36:58;;;;;;;48.17;33.33;;;;;;;;;;5023193;28;38568;-77
2021/05/15 10:39:33;;;;;;;47.08;32.88;;;;;;;;;;5031694;28;38292;-77
2021/05/15 10:42:00;;;;;;;45.47;32.08;;;;;;;;;;5011300;28;36430;-77
2021/05/15 10:44:27;;;;;;;47.42;32.40;;;;;;;;;;4989328;28;40375;-77
2021/05/15 10:46:53;;;;;;;50.92;35.55;;;;;;;;;;4989232;28;38977;-77
2021/05/15 10:49:28;;;;;;;50.42;33.72;;;;;;;;;;4989700;28;38825;-77
2021/05/15 10:51:55;;;;;;;46.40;32.03;;;;;;;;;;4972416;28;37411;-77
2021/05/15 10:54:32;;;;;;;41.13;29.50;;;;;;;;;;4973409;28;39040;-77
2021/05/15 10:57:21;;;;;;;43.92;30.08;;;;;;;;;;4990220;28;38111;-77
2021/05/15 10:59:57;;;;;;;40.97;29.40;;;;;;;;;;4996792;28;49237;-77
2021/05/15 11:02:31;;;;;;;37.35;26.27;;;;;;;;;;5010963;28;38420;-77
2021/05/15 11:05:01;;;;;;;36.60;27.30;;;;;;;;;;5010286;28;38509;-77
2021/05/15 11:07:35;;;;;;;38.85;29.70;;;;;;;;;;5009460;28;48774;-77
2021/05/15 11:10:03;;;;;;;34.30;26.98;;;;;;;;;;5009735;28;38334;-77
2021/05/15 11:12:30;;;;;;;34.15;26.67;;;;;;;;;;5008310;28;48406;-76
2021/05/15 11:15:01;;;;;;;35.13;27.35;;;;;;;;;;5007806;28;37643;-76
2021/05/15 11:17:28;;;;;;;30.65;24.95;;;;;;;;;;5009540;28;38783;-76
2021/05/15 11:19:58;;;;;;;33.15;26.20;;;;;;;;;;4991027;28;37051;-76
2021/05/15 11:22:35;;;;;;;27.73;23.80;;;;;;;;;;5008989;28;37356;-76
2021/05/15 11:25:01;;;;;;;29.30;24.90;;;;;;;;;;4992061;28;38849;-76
2021/05/15 11:27:31;;;;;;;28.90;23.52;;;;;;;;;;4990238;28;38777;-75
2021/05/15 11:30:17;;;;;;;27.88;23.67;;;;;;;;;;5008698;28;38468;-75
2021/05/15 11:32:56;;;;;;;30.50;25.40;;;;;;;;;;4985109;28;47361;-76
2021/05/15 11:35:22;;;;;;;28.77;24.58;;;;;;;;;;5008887;28;38479;-76
2021/05/15 11:37:49;;;;;;;28.70;23.92;;;;;;;;;;5008604;28;37108;-76
2021/05/15 11:40:15;;;;;;;29.77;24.17;;;;;;;;;;4989619;28;37487;-76
2021/05/15 11:42:42;;;;;;;29.15;24.50;;;;;;;;;;5007562;28;37096;-76
2021/05/15 11:45:09;;;;;;;26.08;23.00;;;;;;;;;;4989437;28;37876;-76
2021/05/15 11:47:36;;;;;;;26.40;22.13;;;;;;;;;;5008889;28;38941;-76
2021/05/15 11:50:02;;;;;;;26.55;22.30;;;;;;;;;;4990479;28;36982;-76
2021/05/15 11:52:29;;;;;;;27.33;23.27;;;;;;;;;;4988191;28;47415;-76
2021/05/15 11:54:56;;;;;;;27.10;23.30;;;;;;;;;;5008139;28;39096;-76
2021/05/15 11:57:26;;;;;;;30.88;24.83;;;;;;;;;;5008599;28;38801;-76
2021/05/15 11:59:52;;;;;;;28.65;23.80;;;;;;;;;;5005678;28;37764;-76
2021/05/15 12:02:19;;;;;;;29.02;23.63;;;;;;;;;;5011051;28;37557;-76
2021/05/15 12:04:45;;;;;;;26.38;22.40;;;;;;;;;;5010005;28;37772;-76
2021/05/15 12:07:15;;;;;;;32.33;23.48;;;;;;;;;;5008781;28;38417;-76
2021/05/15 12:09:41;;;;;;;26.88;22.50;;;;;;;;;;5008241;28;39521;-77
2021/05/15 12:12:10;;;;;;;27.17;21.30;;;;;;;;;;4989414;28;36141;-76
2021/05/15 12:14:42;;;;;;;29.40;23.80;;;;;;;;;;4990162;28;38530;-76
2021/05/15 12:17:08;;;;;;;;;;;;;;;;;;5006969;28;38611;-76
2021/05/15 12:19:35;;;;;;;26.52;20.02;;;;;;;;;;4991349;28;38133;-76
2021/05/15 12:22:05;;;;;;;21.45;17.02;;;;;;;;;;4989985;28;36790;-76
2021/05/15 12:24:36;;;;;;;20.25;16.00;;;;;;;;;;5007974;28;48803;-76
2021/05/15 12:27:15;;;;;;;14.65;12.35;;;;;;;;;;5005831;28;37437;-76
2021/05/15 12:29:44;;;;;;;12.45;8.82;;;;;;;;;;5006960;28;39357;-76
2021/05/15 12:32:10;;;;;;;10.38;7.40;;;;;;;;;;5006011;28;36992;-77
2021/05/15 12:34:37;;;;;;;10.35;7.60;;;;;;;;;;5008723;28;39014;-76
2021/05/15 12:37:14;;;;;;;10.68;6.80;;;;;;;;;;5005555;28;38647;-77
2021/05/15 12:39:40;;;;;;;9.00;6.15;;;;;;;;;;5009689;28;37163;-78
2021/05/15 12:42:07;;;;;;;12.05;6.80;;;;;;;;;;4998785;28;36061;-78
2021/05/15 12:44:37;;;;;;;10.23;7.68;;;;;;;;;;5007265;28;38864;-78
2021/05/15 12:47:04;;;;;;;15.65;8.60;;;;;;;;;;4988528;28;39021;-76
2021/05/15 12:49:34;;;;;;;12.10;8.07;;;;;;;;;;4990629;28;38592;-75
2021/05/15 12:52:12;;;;;;;17.60;10.18;;;;;;;;;;5006719;28;36573;-76
2021/05/15 12:54:40;;;;;;;37.72;29.23;;;;;;;;;;5009517;28;48303;-77
2021/05/15 12:57:07;;;;;;;33.78;27.85;;;;;;;;;;4992826;28;37685;-76
2021/05/15 12:59:34;;;;;;;15.77;12.02;;;;;;;;;;4991514;28;38745;-77
2021/05/15 13:02:27;;;;;;;16.70;9.93;;;;;;;;;;4992363;28;38898;-76
2021/05/15 13:04:54;;;;;;;;;;;;;;;;;;5009516;28;49614;-76
2021/05/15 13:07:38;;;;;;;12.25;9.60;;;;;;;;;;5010824;28;39551;-76
2021/05/15 13:10:11;;;;;;;9.15;7.97;;;;;;;;;;4993185;28;39886;-75
2021/05/15 13:12:39;;;;;;;10.15;8.00;;;;;;;;;;5010707;28;49088;-75
2021/05/15 13:15:06;;;;;;;8.45;7.22;;;;;;;;;;5010970;28;40035;-76
2021/05/15 13:17:32;;;;;;;7.82;6.25;;;;;;;;;;5010707;28;38751;-76
2021/05/15 13:19:59;;;;;;;10.60;7.95;;;;;;;;;;5010760;28;38335;-76
2021/05/15 13:22:25;;;;;;;9.13;7.47;;;;;;;;;;5010572;28;36428;-76
2021/05/15 13:24:52;;;;;;;10.85;8.30;;;;;;;;;;4992050;28;40678;-76
2021/05/15 13:27:18;;;;;;;8.00;6.50;;;;;;;;;;4990887;28;40201;-76
2021/05/15 13:29:44;;;;;;;11.32;7.15;;;;;;;;;;4987315;28;39014;-76
2021/05/15 13:32:11;;;;;;;9.40;5.88;;;;;;;;;;4983221;28;37218;-76
2021/05/15 13:34:37;;;;;;;6.68;4.72;;;;;;;;;;5009681;28;38702;-75
2021/05/15 13:37:04;;;;;;;8.30;4.40;;;;;;;;;;5026931;28;38715;-76
2021/05/15 13:39:30;;;;;;;5.28;4.30;;;;;;;;;;5012239;28;39620;-76
2021/05/15 13:41:57;;;;;;;4.80;3.90;;;;;;;;;;5028828;28;37662;-75
2021/05/15 13:44:23;;;;;;;6.50;3.88;;;;;;;;;;5030153;28;39104;-76
2021/05/15 13:46:51;;;;;;;5.65;3.45;;;;;;;;;;5011100;28;38494;-76
2021/05/15 13:49:19;;;;;;;5.38;3.78;;;;;;;;;;5025442;28;38995;-76
2021/05/15 13:51:46;;;;;;;5.55;3.50;;;;;;;;;;4991771;28;37662;-75
2021/05/15 13:54:12;;;;;;;5.85;3.53;;;;;;;;;;4991504;28;39092;-76
2021/05/15 13:56:39;;;;;;;6.07;3.30;;;;;;;;;;4992639;28;40119;-75
2021/05/15 13:59:05;;;;;;;5.70;3.13;;;;;;;;;;5010957;28;39137;-75
2021/05/15 14:01:31;;;;;;;4.00;3.10;;;;;;;;;;4979165;28;36939;-76
2021/05/15 14:03:58;;;;;;;5.80;3.60;;;;;;;;;;4979729;28;37393;-76
2021/05/15 14:06:26;;;;;;;6.80;3.70;;;;;;;;;;4995774;28;38140;-76
2021/05/15 14:08:52;;;;;;;6.25;3.70;;;;;;;;;;4992380;28;38662;-76
2021/05/15 14:11:19;;;;;;;4.93;4.05;;;;;;;;;;4992419;28;38860;-76
2021/05/15 14:13:45;;;;;;;6.07;4.05;;;;;;;;;;5011106;28;39007;-76
2021/05/15 14:16:12;;;;;;;5.78;3.85;;;;;;;;;;4990685;28;38632;-75
2021/05/15 14:18:38;;;;;;;4.90;3.00;;;;;;;;;;4993520;28;40037;-76
2021/05/15 14:21:04;;;;;;;2.50;1.60;;;;;;;;;;4990651;28;38052;-76
2021/05/15 14:23:31;;;;;;;3.63;1.40;;;;;;;;;;4992604;28;39595;-76
2021/05/15 14:25:57;;;;;;;4.03;1.90;;;;;;;;;;4992022;28;38840;-76
2021/05/15 14:28:24;;;;;;;2.17;1.65;;;;;;;;;;5010904;28;39472;-76
2021/05/15 14:30:50;;;;;;;5.22;2.00;;;;;;;;;;4990516;28;37662;-76